Time;durP1;ratioP1;P1;durP2;ratioP2;P2;SDS_P1;SDS_P2;PMS_P1;PMS_P2;Temp;Humidity;BMP_temperature;BMP_pressure;BME280_temperature;BME280_humidity;BME280_pressure;Samples;Min_cycle;Max_cycle;Signal;HPM_P1;HPM_P2
2021/08/21 00:00:11;;;;;;;5.90;3.87;;;;;;;;;;5105652;28;20194;-65
2021/08/21 00:02:39;;;;;;;6.60;4.17;;;;;;;;;;5105597;28;20284;-64
2021/08/21 00:05:08;;;;;;;5.63;3.80;;;;;;;;;;5105650;28;20320;-64
2021/08/21 00:07:36;;;;;;;4.27;3.70;;;;;;;;;;5105518;28;20221;-64
2021/08/21 00:10:06;;;;;;;5.17;3.73;;;;;;;;;;5105077;28;20202;-64
2021/08/21 00:12:34;;;;;;;4.13;3.60;;;;;;;;;;5096859;28;20203;-64
2021/08/21 00:15:02;;;;;;;6.90;3.53;;;;;;;;;;5096770;28;20221;-64
2021/08/21 00:17:30;;;;;;;4.90;3.60;;;;;;;;;;5105480;28;20194;-64
2021/08/21 00:19:58;;;;;;;4.70;3.40;;;;;;;;;;5104268;28;20233;-65
2021/08/21 00:22:26;;;;;;;6.30;3.53;;;;;;;;;;5105762;28;20279;-64
2021/08/21 00:24:54;;;;;;;4.47;3.20;;;;;;;;;;5106194;28;20214;-64
2021/08/21 00:27:26;;;;;;;3.57;3.27;;;;;;;;;;5106342;28;20220;-64
2021/08/21 00:29:54;;;;;;;5.07;3.73;;;;;;;;;;5105382;28;20286;-64
2021/08/21 00:32:22;;;;;;;7.60;4.13;;;;;;;;;;5105781;28;20203;-64
2021/08/21 00:34:49;;;;;;;4.60;3.27;;;;;;;;;;5105676;28;20222;-64
2021/08/21 00:37:17;;;;;;;4.70;3.33;;;;;;;;;;5105937;28;20563;-64
2021/08/21 00:39:45;;;;;;;5.07;3.40;;;;;;;;;;5103220;28;20207;-64
2021/08/21 00:42:13;;;;;;;5.63;3.50;;;;;;;;;;5097552;28;20206;-64
2021/08/21 00:44:43;;;;;;;5.00;3.50;;;;;;;;;;5097074;28;20745;-64
2021/08/21 00:47:11;;;;;;;5.13;3.30;;;;;;;;;;5097760;28;20231;-64
2021/08/21 00:49:40;;;;;;;3.60;3.30;;;;;;;;;;5104248;28;20205;-64
2021/08/21 00:52:09;;;;;;;4.57;3.10;;;;;;;;;;5100480;28;20211;-64
2021/08/21 00:54:39;;;;;;;4.23;3.37;;;;;;;;;;5097870;28;20310;-64
2021/08/21 00:57:07;;;;;;;6.40;3.17;;;;;;;;;;5097361;28;20666;-64
2021/08/21 00:59:36;;;;;;;3.37;2.90;;;;;;;;;;5110020;28;20212;-64
2021/08/21 01:02:06;;;;;;;3.40;2.97;;;;;;;;;;5118137;28;20212;-64
2021/08/21 01:04:34;;;;;;;3.80;3.10;;;;;;;;;;5118072;28;20312;-64
2021/08/21 01:07:03;;;;;;;3.60;2.97;;;;;;;;;;5117800;28;20761;-63
2021/08/21 01:09:31;;;;;;;3.90;3.03;;;;;;;;;;5117663;28;20847;-64
2021/08/21 01:11:59;;;;;;;3.13;2.83;;;;;;;;;;5117758;28;20284;-64
2021/08/21 01:14:27;;;;;;;4.40;3.17;;;;;;;;;;5117978;28;20292;-64
2021/08/21 01:16:55;;;;;;;6.17;3.33;;;;;;;;;;5118013;28;20289;-64
2021/08/21 01:19:25;;;;;;;6.77;3.33;;;;;;;;;;5118042;28;20206;-64
2021/08/21 01:21:53;;;;;;;9.17;3.83;;;;;;;;;;5117650;28;20248;-64
2021/08/21 01:24:21;;;;;;;4.60;3.47;;;;;;;;;;5115744;28;20304;-64
2021/08/21 01:26:52;;;;;;;5.47;3.40;;;;;;;;;;5097328;28;20276;-64
2021/08/21 01:29:20;;;;;;;4.63;3.70;;;;;;;;;;5097261;28;20575;-63
2021/08/21 01:31:48;;;;;;;4.37;3.10;;;;;;;;;;5097281;28;20577;-63
2021/08/21 01:34:16;;;;;;;6.43;3.10;;;;;;;;;;5097282;28;20728;-64
2021/08/21 01:36:46;;;;;;;5.03;3.23;;;;;;;;;;5097603;28;20217;-64
2021/08/21 01:39:14;;;;;;;6.03;3.87;;;;;;;;;;5097127;28;20211;-64
2021/08/21 01:41:42;;;;;;;10.47;3.50;;;;;;;;;;5096916;28;20207;-64
2021/08/21 01:44:12;;;;;;;5.37;3.37;;;;;;;;;;5097264;28;20235;-64
2021/08/21 01:46:40;;;;;;;5.50;3.40;;;;;;;;;;5097165;28;20289;-64
2021/08/21 01:49:11;;;;;;;4.50;3.70;;;;;;;;;;5099431;28;20225;-64
2021/08/21 01:51:40;;;;;;;5.10;3.30;;;;;;;;;;5104291;28;20206;-64
2021/08/21 01:54:08;;;;;;;3.50;3.20;;;;;;;;;;5098062;28;20313;-64
2021/08/21 01:56:42;;;;;;;4.47;3.30;;;;;;;;;;5101044;28;20296;-64
2021/08/21 01:59:18;;;;;;;4.87;3.40;;;;;;;;;;5109629;28;20562;-64
2021/08/21 02:01:46;;;;;;;3.60;3.17;;;;;;;;;;5121362;28;20287;-64
2021/08/21 02:04:14;;;;;;;5.17;2.97;;;;;;;;;;5121451;28;20223;-64
2021/08/21 02:06:42;;;;;;;7.40;3.70;;;;;;;;;;5120919;28;20208;-64
2021/08/21 02:09:10;;;;;;;4.27;3.13;;;;;;;;;;5121258;28;20231;-64
2021/08/21 02:11:38;;;;;;;3.97;3.57;;;;;;;;;;5120623;28;20200;-64
2021/08/21 02:14:06;;;;;;;5.47;3.80;;;;;;;;;;5120900;28;20296;-64
2021/08/21 02:16:36;;;;;;;5.77;3.43;;;;;;;;;;5121079;28;20299;-64
2021/08/21 02:19:04;;;;;;;5.47;3.80;;;;;;;;;;5121153;28;20264;-64
2021/08/21 02:21:32;;;;;;;5.03;3.60;;;;;;;;;;5120634;28;20239;-64
2021/08/21 02:24:01;;;;;;;5.23;3.30;;;;;;;;;;5120866;28;20231;-64
2021/08/21 02:26:29;;;;;;;3.27;2.97;;;;;;;;;;5100334;28;20209;-64
2021/08/21 02:28:57;;;;;;;3.80;3.43;;;;;;;;;;5100190;28;20590;-64
2021/08/21 02:31:25;;;;;;;3.67;3.03;;;;;;;;;;5100172;28;20701;-64
2021/08/21 02:33:55;;;;;;;4.23;3.27;;;;;;;;;;5100035;28;20239;-62
2021/08/21 02:36:23;;;;;;;3.97;3.03;;;;;;;;;;5100122;28;20208;-62
2021/08/21 02:38:51;;;;;;;6.43;3.20;;;;;;;;;;5100128;28;20233;-63
2021/08/21 02:41:19;;;;;;;3.83;3.27;;;;;;;;;;5099923;28;20215;-63
2021/08/21 02:43:47;;;;;;;5.03;3.43;;;;;;;;;;5099844;28;20221;-62
2021/08/21 02:46:15;;;;;;;3.90;3.50;;;;;;;;;;5100002;28;20204;-62
2021/08/21 02:48:43;;;;;;;6.03;3.73;;;;;;;;;;5100081;28;20236;-63
2021/08/21 02:51:12;;;;;;;4.07;3.30;;;;;;;;;;5109445;28;20269;-63
2021/08/21 02:53:40;;;;;;;4.73;3.10;;;;;;;;;;5099916;28;20292;-63
2021/08/21 02:56:08;;;;;;;5.67;3.63;;;;;;;;;;5099654;28;20206;-62
2021/08/21 02:58:36;;;;;;;5.83;4.10;;;;;;;;;;5103882;28;20214;-64
2021/08/21 03:01:04;;;;;;;4.67;4.00;;;;;;;;;;5120208;28;20219;-62
2021/08/21 03:03:32;;;;;;;5.53;3.80;;;;;;;;;;5120192;28;20250;-62
2021/08/21 03:06:00;;;;;;;5.40;4.20;;;;;;;;;;5118962;28;20674;-62
2021/08/21 03:08:29;;;;;;;5.67;3.43;;;;;;;;;;5120088;28;20230;-62
2021/08/21 03:10:57;;;;;;;3.93;3.50;;;;;;;;;;5119797;28;20292;-62
2021/08/21 03:13:25;;;;;;;4.30;3.47;;;;;;;;;;5119779;28;20216;-62
2021/08/21 03:15:53;;;;;;;7.07;3.70;;;;;;;;;;5119638;28;20603;-62
2021/08/21 03:18:21;;;;;;;5.10;3.87;;;;;;;;;;5116071;28;20196;-63
2021/08/21 03:20:49;;;;;;;7.63;3.57;;;;;;;;;;5119652;28;20234;-63
2021/08/21 03:23:17;;;;;;;3.63;3.30;;;;;;;;;;5119761;28;20208;-63
2021/08/21 03:25:47;;;;;;;5.83;3.53;;;;;;;;;;5114270;28;20227;-63
2021/08/21 03:28:15;;;;;;;4.33;3.93;;;;;;;;;;5119440;27;20221;-63
2021/08/21 03:30:43;;;;;;;6.00;3.37;;;;;;;;;;5119166;27;20207;-63
2021/08/21 03:33:11;;;;;;;4.17;3.13;;;;;;;;;;5119458;28;20207;-61
2021/08/21 03:35:39;;;;;;;6.63;4.37;;;;;;;;;;5110304;28;20228;-61
2021/08/21 03:38:06;;;;;;;5.63;3.07;;;;;;;;;;5119060;28;20658;-61
2021/08/21 03:40:34;;;;;;;3.50;3.20;;;;;;;;;;5118852;28;20201;-63
2021/08/21 03:43:04;;;;;;;4.27;3.80;;;;;;;;;;5118963;28;20673;-63
2021/08/21 03:45:32;;;;;;;3.53;3.23;;;;;;;;;;5119119;28;20234;-63
2021/08/21 03:48:00;;;;;;;4.40;3.50;;;;;;;;;;5119166;28;20204;-62
2021/08/21 03:50:29;;;;;;;5.00;3.23;;;;;;;;;;5115853;28;20206;-62
2021/08/21 03:52:57;;;;;;;4.50;3.50;;;;;;;;;;5098928;28;20209;-62
2021/08/21 03:55:25;;;;;;;3.50;3.20;;;;;;;;;;5098698;28;20237;-62
2021/08/21 03:57:53;;;;;;;3.70;3.27;;;;;;;;;;5098746;28;20202;-62
2021/08/21 04:00:23;;;;;;;4.50;3.43;;;;;;;;;;5117510;28;20541;-62
2021/08/21 04:02:51;;;;;;;5.93;3.73;;;;;;;;;;5115943;28;20569;-62
2021/08/21 04:05:19;;;;;;;4.33;3.53;;;;;;;;;;5100097;28;20658;-62
2021/08/21 04:07:47;;;;;;;6.97;4.53;;;;;;;;;;5107736;28;20286;-62
2021/08/21 04:10:15;;;;;;;5.30;4.10;;;;;;;;;;5104909;28;20232;-62
2021/08/21 04:12:44;;;;;;;3.60;3.30;;;;;;;;;;5102868;28;20203;-62
2021/08/21 04:15:12;;;;;;;6.40;3.73;;;;;;;;;;5096841;28;20250;-63
2021/08/21 04:17:41;;;;;;;6.93;3.87;;;;;;;;;;5096837;28;20283;-62
2021/08/21 04:20:10;;;;;;;4.77;4.37;;;;;;;;;;5096412;28;20669;-62
2021/08/21 04:22:38;;;;;;;3.73;3.23;;;;;;;;;;5097030;28;20283;-62
2021/08/21 04:25:06;;;;;;;5.47;3.50;;;;;;;;;;5106041;28;20217;-62
2021/08/21 04:27:34;;;;;;;4.23;3.63;;;;;;;;;;5105984;28;20285;-62
2021/08/21 04:30:02;;;;;;;4.33;3.50;;;;;;;;;;5103047;28;20781;-61
2021/08/21 04:32:30;;;;;;;4.43;3.53;;;;;;;;;;5104123;28;20202;-61
2021/08/21 04:35:00;;;;;;;4.47;3.70;;;;;;;;;;5105330;28;20230;-63
2021/08/21 04:37:28;;;;;;;5.97;3.30;;;;;;;;;;5100039;28;20197;-62
2021/08/21 04:39:56;;;;;;;4.23;3.80;;;;;;;;;;5102862;28;20197;-62
2021/08/21 04:42:24;;;;;;;4.07;3.63;;;;;;;;;;5105498;28;20205;-62
2021/08/21 04:44:52;;;;;;;5.03;3.50;;;;;;;;;;5105561;28;20222;-62
2021/08/21 04:47:20;;;;;;;10.97;4.50;;;;;;;;;;5105152;28;20232;-61
2021/08/21 04:49:49;;;;;;;6.60;3.73;;;;;;;;;;5105657;28;20218;-62
2021/08/21 04:52:18;;;;;;;5.23;3.70;;;;;;;;;;5104642;28;20198;-63
2021/08/21 04:54:46;;;;;;;5.30;3.90;;;;;;;;;;5104945;28;20244;-62
2021/08/21 04:57:14;;;;;;;6.30;4.20;;;;;;;;;;5103586;28;20218;-62
2021/08/21 04:59:42;;;;;;;6.60;3.63;;;;;;;;;;5108551;28;20285;-63
2021/08/21 05:02:10;;;;;;;5.03;3.97;;;;;;;;;;5105395;28;20205;-63
2021/08/21 05:04:38;;;;;;;7.13;3.70;;;;;;;;;;5105664;28;20213;-63
2021/08/21 05:07:07;;;;;;;11.40;4.13;;;;;;;;;;5102772;28;20209;-63
2021/08/21 05:09:36;;;;;;;7.77;4.27;;;;;;;;;;5102111;28;20225;-63
2021/08/21 05:12:05;;;;;;;5.37;3.73;;;;;;;;;;5097048;28;20213;-61
2021/08/21 05:14:32;;;;;;;14.63;4.60;;;;;;;;;;5097066;28;20657;-62
2021/08/21 05:17:00;;;;;;;5.00;3.83;;;;;;;;;;5097558;28;20703;-63
2021/08/21 05:19:30;;;;;;;4.93;3.43;;;;;;;;;;5097479;28;20204;-61
2021/08/21 05:22:09;;;;;;;6.20;3.93;;;;;;;;;;5097337;28;20334;-63
2021/08/21 05:24:39;;;;;;;4.13;3.60;;;;;;;;;;5098278;28;20221;-63
2021/08/21 05:27:10;;;;;;;6.03;4.20;;;;;;;;;;5097376;28;20206;-63
2021/08/21 05:29:38;;;;;;;5.50;3.60;;;;;;;;;;5098446;28;20225;-63
2021/08/21 05:32:06;;;;;;;8.67;3.77;;;;;;;;;;5101585;28;20235;-63
2021/08/21 05:34:34;;;;;;;8.60;3.83;;;;;;;;;;5101588;28;20236;-63
2021/08/21 05:37:02;;;;;;;4.70;3.43;;;;;;;;;;5101324;28;20206;-63
2021/08/21 05:39:32;;;;;;;7.23;3.70;;;;;;;;;;5101479;28;20201;-63
2021/08/21 05:42:01;;;;;;;9.30;4.07;;;;;;;;;;5101130;28;20216;-63
2021/08/21 05:44:29;;;;;;;4.67;3.57;;;;;;;;;;5101060;28;20323;-63
2021/08/21 05:46:57;;;;;;;5.53;4.70;;;;;;;;;;5100943;28;20213;-65
2021/08/21 05:49:25;;;;;;;6.63;3.80;;;;;;;;;;5105262;28;20226;-64
2021/08/21 05:51:53;;;;;;;5.70;3.80;;;;;;;;;;5105394;28;20208;-65
2021/08/21 05:54:21;;;;;;;5.10;4.03;;;;;;;;;;5101355;28;20317;-65
2021/08/21 05:56:49;;;;;;;6.30;4.00;;;;;;;;;;5100637;28;20212;-64
2021/08/21 05:59:18;;;;;;;5.17;4.27;;;;;;;;;;5110324;27;20208;-61
2021/08/21 06:01:46;;;;;;;5.73;4.10;;;;;;;;;;5107717;28;20204;-62
2021/08/21 06:04:14;;;;;;;4.67;4.07;;;;;;;;;;5108613;28;20230;-64
2021/08/21 06:06:42;;;;;;;7.57;3.93;;;;;;;;;;5111560;28;20196;-64
2021/08/21 06:09:10;;;;;;;6.83;3.90;;;;;;;;;;5111424;28;20214;-62
2021/08/21 06:11:38;;;;;;;4.60;4.17;;;;;;;;;;5113443;27;20203;-63
2021/08/21 06:14:06;;;;;;;4.97;4.20;;;;;;;;;;5111499;28;20297;-63
2021/08/21 06:16:35;;;;;;;7.20;4.17;;;;;;;;;;5111720;28;20680;-63
2021/08/21 06:19:03;;;;;;;7.23;4.10;;;;;;;;;;5109602;28;20206;-65
2021/08/21 06:21:31;;;;;;;8.20;4.30;;;;;;;;;;5108771;28;20299;-67
2021/08/21 06:23:59;;;;;;;8.67;4.83;;;;;;;;;;5115711;28;20233;-66
2021/08/21 06:26:28;;;;;;;5.60;4.73;;;;;;;;;;5100930;28;20753;-66
2021/08/21 06:28:56;;;;;;;5.27;4.13;;;;;;;;;;5100542;28;20292;-65
2021/08/21 06:31:24;;;;;;;6.27;4.17;;;;;;;;;;5100086;28;20607;-65
2021/08/21 06:33:53;;;;;;;6.43;4.00;;;;;;;;;;5104358;28;20217;-63
2021/08/21 06:36:21;;;;;;;5.50;4.63;;;;;;;;;;5107131;28;20876;-63
2021/08/21 06:38:49;;;;;;;7.43;4.20;;;;;;;;;;5107287;28;20212;-64
2021/08/21 06:41:17;;;;;;;5.97;4.77;;;;;;;;;;5106481;28;20212;-63
2021/08/21 06:43:45;;;;;;;7.23;5.23;;;;;;;;;;5106875;28;20218;-63
2021/08/21 06:46:13;;;;;;;7.50;4.63;;;;;;;;;;5105837;28;20205;-64
2021/08/21 06:48:41;;;;;;;8.87;4.67;;;;;;;;;;5107515;28;20236;-63
2021/08/21 06:51:11;;;;;;;5.93;4.53;;;;;;;;;;5108048;28;20328;-63
2021/08/21 06:53:40;;;;;;;6.20;4.37;;;;;;;;;;5108976;28;20207;-63
2021/08/21 06:56:08;;;;;;;6.40;4.30;;;;;;;;;;5105164;28;20559;-63
2021/08/21 06:58:36;;;;;;;6.17;4.23;;;;;;;;;;5106309;28;20200;-64
2021/08/21 07:01:04;;;;;;;6.00;3.97;;;;;;;;;;5107153;28;20197;-64
2021/08/21 07:03:32;;;;;;;5.13;4.50;;;;;;;;;;5106408;28;20209;-64
2021/08/21 07:06:00;;;;;;;7.07;4.13;;;;;;;;;;5107432;28;20307;-64
2021/08/21 07:08:29;;;;;;;5.03;4.20;;;;;;;;;;5110774;28;20206;-64
2021/08/21 07:10:57;;;;;;;5.20;4.17;;;;;;;;;;5119444;28;20236;-64
2021/08/21 07:13:25;;;;;;;5.27;4.70;;;;;;;;;;5119875;28;20205;-64
2021/08/21 07:15:53;;;;;;;7.37;5.17;;;;;;;;;;5119500;28;20250;-62
2021/08/21 07:18:22;;;;;;;9.47;5.63;;;;;;;;;;5119576;28;20207;-62
2021/08/21 07:20:49;;;;;;;7.50;5.00;;;;;;;;;;5119253;28;20234;-63
2021/08/21 07:23:17;;;;;;;7.60;3.80;;;;;;;;;;5119465;28;20215;-64
2021/08/21 07:25:47;;;;;;;4.30;3.90;;;;;;;;;;5104584;28;20219;-64
2021/08/21 07:28:15;;;;;;;4.77;3.83;;;;;;;;;;5098957;28;20231;-65
2021/08/21 07:30:43;;;;;;;7.27;4.47;;;;;;;;;;5098958;28;20288;-64
2021/08/21 07:33:11;;;;;;;6.10;4.00;;;;;;;;;;5099163;28;20218;-64
2021/08/21 07:35:38;;;;;;;5.03;3.67;;;;;;;;;;5099122;28;20232;-64
2021/08/21 07:38:06;;;;;;;5.83;3.87;;;;;;;;;;5098719;28;20214;-64
2021/08/21 07:40:35;;;;;;;5.70;3.30;;;;;;;;;;5098568;28;20208;-64
2021/08/21 07:43:05;;;;;;;4.67;3.37;;;;;;;;;;5102780;28;20198;-64
2021/08/21 07:45:33;;;;;;;4.73;3.67;;;;;;;;;;5103987;28;20234;-64
2021/08/21 07:48:01;;;;;;;4.10;3.30;;;;;;;;;;5106646;28;20195;-63
2021/08/21 07:50:29;;;;;;;4.67;3.40;;;;;;;;;;5106973;28;20313;-64
2021/08/21 07:52:57;;;;;;;4.97;3.40;;;;;;;;;;5105187;28;20204;-64
2021/08/21 07:55:26;;;;;;;5.07;3.50;;;;;;;;;;5104592;28;20305;-64
2021/08/21 07:57:54;;;;;;;5.77;3.87;;;;;;;;;;5105780;28;20669;-64
2021/08/21 08:00:24;;;;;;;5.80;3.67;;;;;;;;;;5104549;28;20719;-64
2021/08/21 08:02:52;;;;;;;3.63;3.30;;;;;;;;;;5097961;28;20204;-64
2021/08/21 08:05:20;;;;;;;4.70;3.30;;;;;;;;;;5098049;28;20259;-64
2021/08/21 08:07:48;;;;;;;4.03;3.63;;;;;;;;;;5097980;28;20294;-64
2021/08/21 08:10:17;;;;;;;8.13;4.00;;;;;;;;;;5097356;28;20200;-64
2021/08/21 08:12:45;;;;;;;4.70;3.40;;;;;;;;;;5098214;28;20255;-64
2021/08/21 08:15:13;;;;;;;5.10;3.57;;;;;;;;;;5105419;28;20219;-64
2021/08/21 08:17:43;;;;;;;3.57;3.10;;;;;;;;;;5105341;28;20203;-63
2021/08/21 08:20:11;;;;;;;4.57;3.73;;;;;;;;;;5104934;28;20229;-64
2021/08/21 08:22:39;;;;;;;3.97;3.67;;;;;;;;;;5104949;28;20204;-64
2021/08/21 08:25:08;;;;;;;4.17;3.77;;;;;;;;;;5104322;28;20222;-63
2021/08/21 08:27:36;;;;;;;6.53;3.97;;;;;;;;;;5105134;28;20287;-63
2021/08/21 08:30:04;;;;;;;4.20;3.80;;;;;;;;;;5104834;28;20198;-63
2021/08/21 08:32:33;;;;;;;4.70;4.17;;;;;;;;;;5104448;28;20225;-63
2021/08/21 08:35:02;;;;;;;6.23;4.47;;;;;;;;;;5105722;28;20421;-63
2021/08/21 08:37:30;;;;;;;4.37;3.50;;;;;;;;;;5103719;27;20290;-63
2021/08/21 08:39:58;;;;;;;4.73;3.67;;;;;;;;;;5105126;28;20278;-63
2021/08/21 08:42:26;;;;;;;3.63;3.33;;;;;;;;;;5104213;28;20799;-61
2021/08/21 08:44:54;;;;;;;4.53;3.70;;;;;;;;;;5105946;28;20221;-61
2021/08/21 08:47:22;;;;;;;4.23;3.70;;;;;;;;;;5102974;28;20204;-61
2021/08/21 08:49:51;;;;;;;4.00;3.43;;;;;;;;;;5110304;28;20200;-63
2021/08/21 08:52:20;;;;;;;4.53;3.27;;;;;;;;;;5102829;28;20302;-61
2021/08/21 08:54:48;;;;;;;4.53;3.63;;;;;;;;;;5105373;28;20227;-63
2021/08/21 08:57:33;;;;;;;4.43;3.90;;;;;;;;;;5105939;28;20201;-63
2021/08/21 09:00:01;;;;;;;4.53;3.27;;;;;;;;;;5108387;28;20206;-63
2021/08/21 09:02:37;;;;;;;7.57;4.03;;;;;;;;;;5104240;28;20223;-64
2021/08/21 09:05:05;;;;;;;3.97;3.67;;;;;;;;;;5105440;28;20228;-64
2021/08/21 09:07:42;;;;;;;5.77;3.90;;;;;;;;;;5109039;28;20200;-64
2021/08/21 09:10:11;;;;;;;3.90;3.50;;;;;;;;;;5101392;28;20208;-63
2021/08/21 09:12:39;;;;;;;4.43;3.57;;;;;;;;;;5101546;28;20623;-66
2021/08/21 09:15:18;;;;;;;3.63;3.30;;;;;;;;;;5108053;28;20216;-64
2021/08/21 09:17:58;;;;;;;4.50;3.70;;;;;;;;;;5100251;28;20609;-64
2021/08/21 09:20:27;;;;;;;4.20;3.33;;;;;;;;;;5107300;28;20228;-62
2021/08/21 09:23:15;;;;;;;4.33;3.47;;;;;;;;;;5106391;28;20574;-62
2021/08/21 09:25:43;;;;;;;6.00;3.50;;;;;;;;;;5109519;28;20303;-62
2021/08/21 09:28:15;;;;;;;7.30;4.50;;;;;;;;;;5107399;28;20197;-62
2021/08/21 09:30:43;;;;;;;4.00;3.60;;;;;;;;;;5100233;28;20207;-62
2021/08/21 09:33:11;;;;;;;5.73;3.67;;;;;;;;;;5099916;28;20589;-62
2021/08/21 09:35:39;;;;;;;6.03;3.97;;;;;;;;;;5099974;28;20236;-62
2021/08/21 09:38:09;;;;;;;4.80;3.50;;;;;;;;;;5099950;28;20227;-62
2021/08/21 09:40:38;;;;;;;4.30;3.90;;;;;;;;;;5099617;28;20650;-63
2021/08/21 09:43:07;;;;;;;6.70;3.47;;;;;;;;;;5100099;28;20199;-63
2021/08/21 09:45:39;;;;;;;3.57;3.27;;;;;;;;;;5102691;28;20284;-63
2021/08/21 09:48:07;;;;;;;4.10;3.20;;;;;;;;;;5108674;28;20287;-63
2021/08/21 09:50:36;;;;;;;4.30;3.40;;;;;;;;;;5108092;28;20204;-63
2021/08/21 09:53:05;;;;;;;3.90;3.50;;;;;;;;;;5109043;28;20247;-62
2021/08/21 09:55:34;;;;;;;3.70;3.20;;;;;;;;;;5105761;28;20228;-63
2021/08/21 09:58:04;;;;;;;3.93;3.10;;;;;;;;;;5099609;28;20996;-62
2021/08/21 10:00:34;;;;;;;4.23;3.77;;;;;;;;;;5099868;28;20207;-65
2021/08/21 10:03:04;;;;;;;7.67;3.57;;;;;;;;;;5099862;28;20401;-62
2021/08/21 10:05:32;;;;;;;4.30;3.40;;;;;;;;;;5106149;28;20447;-62
2021/08/21 10:08:03;;;;;;;3.73;3.30;;;;;;;;;;5107741;28;20247;-62
2021/08/21 10:10:35;;;;;;;4.13;3.80;;;;;;;;;;5107398;28;20202;-62
2021/08/21 10:13:09;;;;;;;3.97;3.53;;;;;;;;;;5108041;28;20237;-62
2021/08/21 10:15:39;;;;;;;3.90;3.50;;;;;;;;;;5107404;28;20215;-63
2021/08/21 10:18:07;;;;;;;5.63;3.10;;;;;;;;;;5106768;28;20225;-63
2021/08/21 10:20:35;;;;;;;4.03;3.60;;;;;;;;;;5105481;28;20245;-62
2021/08/21 10:23:10;;;;;;;4.33;3.90;;;;;;;;;;5106706;27;20657;-65
2021/08/21 10:25:40;;;;;;;6.17;3.87;;;;;;;;;;5107763;28;20220;-65
2021/08/21 10:28:12;;;;;;;5.50;3.33;;;;;;;;;;5106888;28;20224;-65
2021/08/21 10:30:41;;;;;;;5.17;3.50;;;;;;;;;;5107791;28;20209;-65
2021/08/21 10:33:09;;;;;;;4.23;3.60;;;;;;;;;;5106479;28;20643;-66
2021/08/21 10:35:42;;;;;;;5.43;4.00;;;;;;;;;;5107696;27;20749;-65
2021/08/21 10:38:28;;;;;;;5.80;3.50;;;;;;;;;;5107106;28;20197;-66
2021/08/21 10:40:56;;;;;;;4.27;3.33;;;;;;;;;;5107454;28;20200;-66
2021/08/21 10:43:39;;;;;;;3.53;3.23;;;;;;;;;;5107699;28;20282;-69
2021/08/21 10:46:08;;;;;;;3.70;3.40;;;;;;;;;;5098313;28;20771;-65
2021/08/21 10:48:53;;;;;;;5.27;3.27;;;;;;;;;;5099250;28;20210;-67
2021/08/21 10:51:36;;;;;;;3.47;3.10;;;;;;;;;;5099271;28;20204;-67
2021/08/21 10:54:37;;;;;;;3.83;3.20;;;;;;;;;;5106251;28;20226;-67
2021/08/21 10:57:20;;;;;;;3.83;3.23;;;;;;;;;;5045826;28;20678;-67
2021/08/21 10:59:48;;;;;;;3.93;2.87;;;;;;;;;;5047084;28;20213;-67
2021/08/21 11:02:34;;;;;;;4.03;3.23;;;;;;;;;;5076244;28;20194;-67
2021/08/21 11:05:04;;;;;;;4.03;3.53;;;;;;;;;;5106334;28;20601;-67
2021/08/21 11:07:41;;;;;;;6.17;3.50;;;;;;;;;;5110297;28;20226;-66
2021/08/21 11:10:13;;;;;;;5.17;3.80;;;;;;;;;;5106198;28;20279;-67
2021/08/21 11:12:43;;;;;;;3.67;3.17;;;;;;;;;;5105015;28;20225;-66
2021/08/21 11:15:16;;;;;;;4.67;4.10;;;;;;;;;;5099317;28;20240;-66
2021/08/21 11:17:44;;;;;;;5.03;3.33;;;;;;;;;;5099302;28;20263;-66
2021/08/21 11:20:27;;;;;;;3.80;3.40;;;;;;;;;;5099071;28;20243;-66
2021/08/21 11:23:10;;;;;;;3.43;3.13;;;;;;;;;;5099350;28;20662;-66
2021/08/21 11:25:38;;;;;;;4.97;3.67;;;;;;;;;;5098343;28;20699;-66
2021/08/21 11:28:07;;;;;;;3.60;3.30;;;;;;;;;;5105873;28;20292;-67
2021/08/21 11:30:35;;;;;;;5.13;3.67;;;;;;;;;;5119591;28;20211;-66
2021/08/21 11:33:21;;;;;;;3.73;3.43;;;;;;;;;;5119122;28;20730;-66
2021/08/21 11:35:52;;;;;;;5.60;3.57;;;;;;;;;;5119301;28;20578;-66
2021/08/21 11:38:27;;;;;;;4.10;3.37;;;;;;;;;;5119601;27;20292;-66
2021/08/21 11:40:56;;;;;;;5.57;3.43;;;;;;;;;;5112858;28;20561;-66
2021/08/21 11:43:24;;;;;;;4.20;3.33;;;;;;;;;;5107503;28;20204;-66
2021/08/21 11:45:53;;;;;;;4.03;3.67;;;;;;;;;;5104769;28;20207;-66
2021/08/21 11:48:26;;;;;;;7.97;3.43;;;;;;;;;;5107036;28;20286;-65
2021/08/21 11:50:56;;;;;;;4.83;3.67;;;;;;;;;;5107001;28;20204;-65
2021/08/21 11:53:26;;;;;;;4.57;3.13;;;;;;;;;;5102650;28;20232;-70
2021/08/21 11:55:55;;;;;;;3.57;3.27;;;;;;;;;;5106349;28;20272;-67
2021/08/21 11:58:30;;;;;;;3.57;3.27;;;;;;;;;;5104927;28;20214;-70
2021/08/21 12:01:18;;;;;;;4.17;3.20;;;;;;;;;;5106505;28;20247;-72
2021/08/21 12:06:36;;;;;;;6.57;3.90;;;;;;;;;;5105582;28;20279;-69
2021/08/21 12:09:08;;;;;;;34.20;6.80;;;;;;;;;;5107034;28;20568;-72
2021/08/21 12:11:36;;;;;;;219.90;18.73;;;;;;;;;;5103291;28;20235;-71
2021/08/21 12:14:04;;;;;;;339.30;28.80;;;;;;;;;;5098086;28;20232;-71
2021/08/21 12:16:33;;;;;;;8.53;3.27;;;;;;;;;;5097822;28;20216;-71
2021/08/21 12:19:01;;;;;;;12.87;3.90;;;;;;;;;;5105610;28;20228;-71
2021/08/21 12:21:29;;;;;;;9.00;3.20;;;;;;;;;;5111717;28;20320;-71
2021/08/21 12:23:59;;;;;;;4.47;2.77;;;;;;;;;;5098512;28;20246;-71
2021/08/21 12:26:34;;;;;;;9.50;3.70;;;;;;;;;;5101642;28;20217;-71
2021/08/21 12:29:04;;;;;;;7.67;2.93;;;;;;;;;;5097584;28;20234;-71
2021/08/21 12:31:36;;;;;;;6.37;2.93;;;;;;;;;;5097904;28;20207;-72
2021/08/21 12:34:04;;;;;;;2.73;2.50;;;;;;;;;;5097367;28;20232;-71
2021/08/21 12:36:40;;;;;;;8.63;3.10;;;;;;;;;;5101529;28;20206;-71
2021/08/21 12:39:10;;;;;;;3.73;2.77;;;;;;;;;;5097461;28;20205;-72
2021/08/21 12:41:48;;;;;;;4.80;2.87;;;;;;;;;;5097391;28;20209;-72
2021/08/21 12:44:16;;;;;;;4.10;2.60;;;;;;;;;;5097575;28;20226;-71
2021/08/21 12:46:52;;;;;;;3.23;2.50;;;;;;;;;;5097483;28;20247;-70
2021/08/21 12:49:33;;;;;;;104.03;10.10;;;;;;;;;;5101178;28;20206;-72
2021/08/21 12:52:03;;;;;;;44.38;6.72;;;;;;;;;;5104955;28;20216;-71
2021/08/21 12:54:33;;;;;;;3.40;3.10;;;;;;;;;;5099592;28;20226;-63
2021/08/21 12:57:08;;;;;;;2.85;2.60;;;;;;;;;;5105523;28;20574;-65
2021/08/21 12:59:37;;;;;;;3.07;2.33;;;;;;;;;;5107269;28;20196;-65
2021/08/21 13:02:06;;;;;;;6.07;2.78;;;;;;;;;;5097744;28;20209;-65
2021/08/21 13:04:34;;;;;;;2.90;2.70;;;;;;;;;;5097233;28;20253;-64
2021/08/21 13:07:03;;;;;;;2.42;2.22;;;;;;;;;;5097263;28;20208;-64
2021/08/21 13:09:33;;;;;;;3.00;2.70;;;;;;;;;;5103808;28;20309;-65
2021/08/21 13:12:01;;;;;;;3.53;2.88;;;;;;;;;;5117489;28;20612;-65
2021/08/21 13:14:29;;;;;;;3.90;2.53;;;;;;;;;;5117568;28;20409;-66
2021/08/21 13:16:57;;;;;;;3.33;2.70;;;;;;;;;;5117318;28;20877;-64
2021/08/21 13:19:25;;;;;;;6.03;2.90;;;;;;;;;;5117485;28;20234;-64
2021/08/21 13:21:53;;;;;;;3.33;2.80;;;;;;;;;;5117266;28;20238;-65
2021/08/21 13:24:21;;;;;;;3.22;2.83;;;;;;;;;;5117369;28;20216;-64
2021/08/21 13:26:50;;;;;;;2.83;2.63;;;;;;;;;;5101705;28;20830;-64
2021/08/21 13:29:18;;;;;;;6.30;2.95;;;;;;;;;;5097257;28;20214;-64
2021/08/21 13:31:46;;;;;;;3.55;3.13;;;;;;;;;;5096732;28;20313;-64
2021/08/21 13:34:14;;;;;;;3.28;2.97;;;;;;;;;;5097017;28;20327;-63
2021/08/21 13:36:42;;;;;;;4.00;3.20;;;;;;;;;;5097271;28;20220;-62
2021/08/21 13:39:11;;;;;;;2.77;2.47;;;;;;;;;;5097418;28;20282;-64
2021/08/21 13:41:39;;;;;;;3.67;2.70;;;;;;;;;;5097161;28;20272;-62
2021/08/21 13:44:08;;;;;;;3.55;2.75;;;;;;;;;;5097130;28;20235;-62
2021/08/21 13:46:36;;;;;;;3.25;2.80;;;;;;;;;;5096863;28;20207;-63
2021/08/21 13:49:04;;;;;;;6.03;5.05;;;;;;;;;;5116585;28;20266;-63
2021/08/21 13:51:33;;;;;;;4.25;2.20;;;;;;;;;;5107418;28;20216;-62
2021/08/21 13:54:01;;;;;;;2.45;2.25;;;;;;;;;;5100590;28;20294;-63
2021/08/21 13:56:29;;;;;;;3.00;2.33;;;;;;;;;;5100712;28;20249;-63
2021/08/21 13:58:57;;;;;;;2.40;2.20;;;;;;;;;;5103131;28;20237;-64
2021/08/21 14:01:27;;;;;;;2.45;2.25;;;;;;;;;;5108912;28;20208;-63
2021/08/21 14:03:55;;;;;;;2.97;2.65;;;;;;;;;;5108621;28;20719;-65
2021/08/21 14:06:23;;;;;;;2.40;2.20;;;;;;;;;;5118722;28;20279;-66
2021/08/21 14:08:51;;;;;;;2.72;2.30;;;;;;;;;;5121444;28;20291;-64
2021/08/21 14:11:19;;;;;;;2.63;2.42;;;;;;;;;;5120644;28;20292;-64
2021/08/21 14:13:47;;;;;;;2.83;2.40;;;;;;;;;;5120863;27;20224;-65
2021/08/21 14:16:15;;;;;;;3.03;2.58;;;;;;;;;;5120686;28;20581;-66
2021/08/21 14:18:44;;;;;;;3.80;2.40;;;;;;;;;;5121181;28;20289;-65
2021/08/21 14:21:12;;;;;;;2.25;2.05;;;;;;;;;;5120600;28;20719;-65
2021/08/21 14:23:40;;;;;;;3.17;2.53;;;;;;;;;;5120703;27;20630;-65
2021/08/21 14:26:08;;;;;;;4.97;2.50;;;;;;;;;;5102618;28;20572;-64
2021/08/21 14:28:38;;;;;;;3.22;2.72;;;;;;;;;;5100080;28;20686;-64
2021/08/21 14:31:06;;;;;;;3.80;3.03;;;;;;;;;;5100255;28;20204;-65
2021/08/21 14:33:34;;;;;;;3.33;2.60;;;;;;;;;;5099964;28;20208;-65
2021/08/21 14:36:05;;;;;;;3.13;2.80;;;;;;;;;;5099984;28;20307;-65
2021/08/21 14:38:33;;;;;;;3.10;2.58;;;;;;;;;;5100352;28;20216;-65
2021/08/21 14:41:02;;;;;;;3.15;2.85;;;;;;;;;;5100017;28;20222;-65
2021/08/21 14:43:30;;;;;;;3.17;2.70;;;;;;;;;;5100021;28;20652;-65
2021/08/21 14:45:58;;;;;;;3.20;2.80;;;;;;;;;;5099677;28;20201;-65
2021/08/21 14:48:26;;;;;;;2.67;2.35;;;;;;;;;;5108582;28;20201;-65
2021/08/21 14:50:54;;;;;;;2.75;2.45;;;;;;;;;;5104233;28;20205;-65
2021/08/21 14:53:42;;;;;;;3.42;3.13;;;;;;;;;;5099782;28;20231;-65
2021/08/21 14:56:10;;;;;;;7.05;2.75;;;;;;;;;;5099592;28;20308;-65
2021/08/21 14:58:38;;;;;;;2.78;2.58;;;;;;;;;;5100059;28;20293;-66